createdAt,value
2022-08-01T00:01:47.819Z,100.00
2022-08-01T00:04:15.920Z,100.00
2022-08-01T00:06:44.051Z,100.00
2022-08-01T00:09:12.228Z,100.00
2022-08-01T00:11:59.543Z,100.00
2022-08-01T00:14:34.787Z,100.00
2022-08-01T00:17:07.413Z,100.00
2022-08-01T00:19:35.976Z,100.00
2022-08-01T00:22:04.675Z,100.00
2022-08-01T00:24:33.030Z,100.00
2022-08-01T00:27:01.173Z,100.00
2022-08-01T00:30:13.323Z,100.00
2022-08-01T00:32:18.871Z,100.00
2022-08-01T00:34:47.492Z,100.00
2022-08-01T00:37:16.159Z,100.00
2022-08-01T00:39:44.534Z,100.00
2022-08-01T00:42:14.347Z,100.00
2022-08-01T00:44:42.810Z,100.00
2022-08-01T00:47:11.264Z,100.00
2022-08-01T00:49:41.175Z,100.00
2022-08-01T00:52:11.408Z,100.00
2022-08-01T00:54:39.756Z,100.00
2022-08-01T00:57:09.898Z,100.00
2022-08-01T00:59:39.966Z,100.00
2022-08-01T01:02:14.921Z,100.00
2022-08-01T01:04:45.372Z,100.00
2022-08-01T01:07:21.356Z,100.00
2022-08-01T01:09:58.858Z,100.00
2022-08-01T01:12:37.410Z,100.00
2022-08-01T01:15:09.753Z,100.00
2022-08-01T01:17:50.090Z,100.00
2022-08-01T01:20:25.907Z,100.00
2022-08-01T01:23:07.778Z,100.00
2022-08-01T01:25:48.170Z,100.00
2022-08-01T01:28:23.288Z,100.00
2022-08-01T01:30:55.807Z,100.00
2022-08-01T01:33:26.268Z,100.00
2022-08-01T01:36:00.439Z,100.00
2022-08-01T01:38:31.739Z,100.00
2022-08-01T01:41:02.243Z,100.00
2022-08-01T01:43:33.419Z,100.00
2022-08-01T01:46:04.780Z,100.00
2022-08-01T01:48:34.618Z,100.00
2022-08-01T01:51:03.570Z,100.00
2022-08-01T01:53:34.538Z,100.00
2022-08-01T01:56:04.268Z,100.00
2022-08-01T01:58:35.258Z,100.00
2022-08-01T02:01:05.566Z,100.00
2022-08-01T02:03:44.786Z,100.00
2022-08-01T02:06:15.758Z,100.00
2022-08-01T02:08:46.148Z,100.00
2022-08-01T02:11:20.430Z,100.00
2022-08-01T02:13:57.954Z,100.00
2022-08-01T02:16:30.662Z,100.00
2022-08-01T02:18:58.674Z,100.00
2022-08-01T02:21:30.499Z,100.00
2022-08-01T02:24:06.137Z,100.00
2022-08-01T02:26:36.092Z,100.00
2022-08-01T02:29:09.828Z,100.00
2022-08-01T02:31:46.130Z,100.00
2022-08-01T02:34:19.097Z,100.00
2022-08-01T02:36:48.988Z,100.00
2022-08-01T02:39:20.037Z,100.00
2022-08-01T02:41:50.657Z,100.00
2022-08-01T02:44:25.810Z,100.00
2022-08-01T02:47:03.443Z,100.00
2022-08-01T02:49:35.117Z,100.00
2022-08-01T02:52:07.048Z,100.00
2022-08-01T02:54:36.393Z,100.00
2022-08-01T02:57:06.753Z,100.00
2022-08-01T02:59:39.845Z,100.00
2022-08-01T03:02:12.535Z,100.00
2022-08-01T03:04:43.592Z,100.00
2022-08-01T03:07:13.518Z,100.00
2022-08-01T03:09:45.653Z,100.00
2022-08-01T03:12:17.861Z,100.00
2022-08-01T03:14:48.142Z,100.00
2022-08-01T03:17:21.447Z,100.00
2022-08-01T03:19:52.127Z,100.00
2022-08-01T03:22:24.129Z,100.00
2022-08-01T03:24:55.309Z,100.00
2022-08-01T03:27:25.742Z,100.00
2022-08-01T03:29:57.231Z,100.00
2022-08-01T03:32:29.434Z,100.00
2022-08-01T03:34:58.378Z,100.00
2022-08-01T03:37:28.698Z,100.00
2022-08-01T03:40:00.989Z,100.00
2022-08-01T03:42:35.302Z,100.00
2022-08-01T03:45:07.820Z,100.00
2022-08-01T03:47:45.658Z,100.00
2022-08-01T03:50:16.416Z,100.00
2022-08-01T03:52:47.306Z,100.00
2022-08-01T03:55:18.557Z,100.00
2022-08-01T03:57:48.653Z,100.00
2022-08-01T04:00:19.570Z,100.00
2022-08-01T04:02:50.847Z,100.00
2022-08-01T04:05:19.350Z,100.00
2022-08-01T04:07:49.223Z,100.00
2022-08-01T04:10:18.047Z,100.00
2022-08-01T04:12:46.856Z,100.00
2022-08-01T04:15:15.183Z,100.00
2022-08-01T04:17:43.696Z,100.00
2022-08-01T04:20:14.052Z,100.00
2022-08-01T04:22:42.683Z,100.00
2022-08-01T04:25:16.752Z,100.00
2022-08-01T04:27:55.298Z,100.00
2022-08-01T04:30:28.130Z,93.88
2022-08-01T04:32:59.593Z,89.91
2022-08-01T04:36:01.606Z,86.93
2022-08-01T04:38:24.181Z,84.09
2022-08-01T04:40:54.459Z,84.93
2022-08-01T04:43:22.989Z,81.50
2022-08-01T04:45:52.856Z,81.39
2022-08-01T04:48:22.613Z,72.43
2022-08-01T04:50:52.874Z,69.92
2022-08-01T04:53:23.842Z,65.60
2022-08-01T04:55:51.999Z,62.80
2022-08-01T04:58:20.252Z,59.44
2022-08-01T05:00:49.032Z,57.47
2022-08-01T05:03:17.351Z,50.54
2022-08-01T05:05:45.547Z,48.26
2022-08-01T05:08:15.121Z,44.78
2022-08-01T05:10:43.225Z,42.94
2022-08-01T05:13:12.127Z,43.70
2022-08-01T05:15:40.265Z,40.68
2022-08-01T05:18:08.620Z,40.53
2022-08-01T05:20:38.062Z,41.14
2022-08-01T05:23:06.484Z,39.18
2022-08-01T05:25:56.900Z,38.52
2022-08-01T05:28:26.292Z,37.58
2022-08-01T05:30:56.060Z,38.05
2022-08-01T05:33:24.320Z,33.19
2022-08-01T05:35:52.491Z,33.52
2022-08-01T05:38:20.615Z,34.51
2022-08-01T05:40:50.194Z,37.04
2022-08-01T05:43:18.299Z,38.98
2022-08-01T05:45:47.159Z,36.51
2022-08-01T05:48:15.398Z,34.05
2022-08-01T05:50:43.554Z,36.64
2022-08-01T05:53:11.705Z,36.23
2022-08-01T05:55:39.821Z,34.91
2022-08-01T05:58:12.613Z,36.54
2022-08-01T06:00:41.051Z,35.32
2022-08-01T06:03:09.206Z,36.20
2022-08-01T06:05:37.326Z,36.42
2022-08-01T06:08:05.969Z,35.46
2022-08-01T06:10:34.312Z,35.19
2022-08-01T06:13:04.201Z,34.37
2022-08-01T06:15:34.474Z,33.66
2022-08-01T06:18:03.055Z,33.59
2022-08-01T06:20:31.183Z,34.60
2022-08-01T06:22:59.893Z,36.47
2022-08-01T06:25:29.147Z,36.23
2022-08-01T06:27:57.315Z,34.77
2022-08-01T06:30:25.593Z,34.63
2022-08-01T06:32:56.951Z,33.89
2022-08-01T06:35:24.859Z,35.70
2022-08-01T06:37:53.013Z,36.78
2022-08-01T06:40:21.165Z,37.13
2022-08-01T06:42:49.460Z,39.22
2022-08-01T06:45:18.389Z,38.15
2022-08-01T06:47:50.764Z,37.43
2022-08-01T06:50:20.980Z,35.73
2022-08-01T06:52:49.107Z,38.89
2022-08-01T06:55:17.347Z,39.77
2022-08-01T06:57:50.236Z,42.14
2022-08-01T07:00:23.682Z,38.10
2022-08-01T07:02:52.032Z,37.42
2022-08-01T07:05:21.837Z,38.43
2022-08-01T07:07:49.969Z,38.66
2022-08-01T07:10:18.915Z,36.89
2022-08-01T07:12:47.219Z,35.12
2022-08-01T07:15:15.571Z,35.78
2022-08-01T07:17:45.081Z,37.20
2022-08-01T07:20:16.578Z,38.37
2022-08-01T07:22:47.381Z,38.05
2022-08-01T07:25:16.612Z,39.00
2022-08-01T07:27:44.757Z,42.20
2022-08-01T07:30:13.598Z,39.18
2022-08-01T07:32:41.837Z,39.18
2022-08-01T07:35:10.850Z,36.78
2022-08-01T07:37:46.164Z,38.06
2022-08-01T07:40:19.823Z,38.13
2022-08-01T07:42:48.274Z,39.48
2022-08-01T07:45:19.077Z,40.85
2022-08-01T07:47:47.880Z,39.53
2022-08-01T07:50:16.065Z,37.39
2022-08-01T07:52:44.500Z,38.82
2022-08-01T07:55:16.417Z,36.77
2022-08-01T07:57:46.356Z,36.91
2022-08-01T08:00:15.332Z,36.65
2022-08-01T08:02:43.734Z,37.27
2022-08-01T08:05:11.951Z,37.80
2022-08-01T08:07:40.243Z,37.97
2022-08-01T08:10:09.161Z,37.82
2022-08-01T08:12:37.271Z,39.25
2022-08-01T08:15:07.938Z,39.69
2022-08-01T08:17:36.882Z,40.41
2022-08-01T08:20:09.271Z,39.31
2022-08-01T08:22:38.709Z,38.37
2022-08-01T08:25:09.869Z,41.30
2022-08-01T08:27:40.022Z,42.21
2022-08-01T08:30:12.224Z,40.12
2022-08-01T08:32:40.749Z,40.17
2022-08-01T08:35:12.172Z,41.48
2022-08-01T08:37:47.447Z,41.08
2022-08-01T08:40:18.069Z,40.82
2022-08-01T08:42:48.131Z,41.94
2022-08-01T08:45:17.833Z,41.28
2022-08-01T08:47:49.498Z,42.01
2022-08-01T08:50:18.214Z,43.80
2022-08-01T08:52:49.195Z,44.03
2022-08-01T08:55:18.704Z,43.31
2022-08-01T08:57:48.258Z,43.82
2022-08-01T09:00:18.384Z,43.03
2022-08-01T09:02:50.198Z,44.15
2022-08-01T09:05:20.235Z,43.90
2022-08-01T09:07:48.574Z,43.90
2022-08-01T09:10:16.721Z,44.06
2022-08-01T09:13:11.694Z,43.99
2022-08-01T09:15:46.221Z,47.54
2022-08-01T09:18:32.685Z,46.26
2022-08-01T09:21:16.166Z,47.22
2022-08-01T09:23:54.053Z,49.10
2022-08-01T09:26:30.151Z,51.65
2022-08-01T09:28:59.536Z,53.00
2022-08-01T09:31:38.143Z,52.25
2022-08-01T09:34:09.143Z,52.02
2022-08-01T09:36:54.087Z,51.48
2022-08-01T09:39:24.678Z,53.36
2022-08-01T09:41:53.203Z,52.82
2022-08-01T09:44:42.082Z,52.81
2022-08-01T09:47:15.565Z,52.70
2022-08-01T09:49:50.579Z,53.14
2022-08-01T09:52:26.199Z,52.29
2022-08-01T09:54:58.971Z,51.22
2022-08-01T09:57:28.369Z,52.73
2022-08-01T10:00:00.534Z,50.22
2022-08-01T10:02:34.345Z,50.34
2022-08-01T10:05:08.385Z,48.97
2022-08-01T10:10:28.994Z,47.39
2022-08-01T10:12:58.737Z,46.46
2022-08-01T10:15:37.026Z,45.60
2022-08-01T10:18:25.912Z,44.77
2022-08-01T10:20:56.628Z,45.00
2022-08-01T10:23:39.790Z,46.19
2022-08-01T10:26:09.887Z,45.58
2022-08-01T10:28:40.390Z,46.11
2022-08-01T10:31:13.212Z,43.88
2022-08-01T10:33:51.259Z,45.83
2022-08-01T10:36:22.738Z,46.08
2022-08-01T10:38:52.397Z,44.23
2022-08-01T10:41:21.283Z,44.19
2022-08-01T10:43:50.164Z,44.78
2022-08-01T10:46:21.033Z,44.00
2022-08-01T10:48:59.196Z,45.97
2022-08-01T10:51:51.613Z,43.13
2022-08-01T10:54:18.401Z,44.09
2022-08-01T10:56:48.754Z,44.15
2022-08-01T10:59:29.068Z,46.61
2022-08-01T11:02:10.357Z,44.84
2022-08-01T11:04:56.406Z,47.05
2022-08-01T11:07:37.745Z,45.03
2022-08-01T11:10:14.969Z,43.00
2022-08-01T11:12:44.460Z,41.20
2022-08-01T11:15:30.048Z,41.46
2022-08-01T11:18:01.324Z,42.90
2022-08-01T11:20:32.682Z,42.57
2022-08-01T11:23:19.140Z,43.29
2022-08-01T11:26:10.952Z,45.85
2022-08-01T11:28:50.250Z,46.64
2022-08-01T11:31:38.491Z,46.87
2022-08-01T11:34:07.230Z,46.49
2022-08-01T11:36:58.136Z,45.85
2022-08-01T11:39:25.126Z,45.87
2022-08-01T11:41:55.722Z,47.63
2022-08-01T11:44:30.296Z,48.31
2022-08-01T11:47:02.547Z,45.85
2022-08-01T11:50:00.580Z,44.58
2022-08-01T11:52:34.495Z,45.29
2022-08-01T11:55:11.487Z,47.49
2022-08-01T11:57:40.552Z,45.24
2022-08-01T12:00:16.453Z,47.51
2022-08-01T12:02:47.309Z,46.20
2022-08-01T12:05:24.678Z,48.66
2022-08-01T12:07:56.482Z,46.83
2022-08-01T12:10:26.024Z,42.10
2022-08-01T12:12:55.768Z,43.91
2022-08-01T12:15:25.557Z,44.29
2022-08-01T12:17:59.719Z,44.67
2022-08-01T12:20:31.147Z,47.07
2022-08-01T12:23:04.227Z,46.63
2022-08-01T12:25:32.742Z,46.36
2022-08-01T12:28:03.672Z,44.74
2022-08-01T12:30:36.463Z,47.10
2022-08-01T12:33:06.053Z,45.64
2022-08-01T12:35:35.172Z,46.88
2022-08-01T12:38:07.896Z,46.08
2022-08-01T12:40:42.140Z,45.30
2022-08-01T12:43:28.674Z,45.94
2022-08-01T12:45:58.859Z,48.27
2022-08-01T12:48:27.570Z,47.40
2022-08-01T12:50:58.852Z,44.31
2022-08-01T12:53:40.322Z,43.77
2022-08-01T12:56:09.214Z,44.19
2022-08-01T12:58:37.707Z,45.01
2022-08-01T13:01:07.612Z,45.89
2022-08-01T13:03:35.885Z,47.65
2022-08-01T13:06:13.622Z,47.33
2022-08-01T13:08:43.367Z,48.02
2022-08-01T13:11:15.529Z,48.81
2022-08-01T13:13:48.538Z,50.93
2022-08-01T13:16:30.376Z,51.13
2022-08-01T13:19:07.467Z,51.97
2022-08-01T13:21:53.652Z,52.99
2022-08-01T13:24:28.816Z,52.23
2022-08-01T13:27:00.698Z,51.02
2022-08-01T13:29:33.805Z,48.16
2022-08-01T13:32:02.503Z,48.70
2022-08-01T13:34:35.595Z,48.31
2022-08-01T13:37:04.415Z,48.42
2022-08-01T13:39:43.357Z,47.85
2022-08-01T13:42:12.988Z,47.47
2022-08-01T13:44:47.588Z,47.31
2022-08-01T13:47:16.931Z,49.10
2022-08-01T13:49:45.866Z,50.29
2022-08-01T13:52:14.122Z,49.83
2022-08-01T13:54:43.709Z,49.31
2022-08-01T13:57:11.939Z,49.91
2022-08-01T13:59:40.076Z,52.31
2022-08-01T14:02:08.684Z,53.88
2022-08-01T14:04:36.990Z,54.84
2022-08-01T14:07:10.572Z,55.93
2022-08-01T14:10:04.758Z,53.88
2022-08-01T14:12:28.699Z,52.05
2022-08-01T14:14:57.496Z,51.79
2022-08-01T14:17:25.727Z,50.75
2022-08-01T14:19:57.642Z,48.95
2022-08-01T14:22:25.863Z,49.32
2022-08-01T14:24:58.266Z,48.58
2022-08-01T14:27:31.972Z,50.10
2022-08-01T14:30:03.457Z,48.42
2022-08-01T14:32:31.893Z,48.76
2022-08-01T14:35:00.016Z,48.14
2022-08-01T14:37:31.703Z,48.78
2022-08-01T14:40:05.812Z,48.98
2022-08-01T14:42:37.505Z,49.62
2022-08-01T14:45:09.833Z,48.93
2022-08-01T14:47:38.515Z,49.67
2022-08-01T14:50:09.194Z,49.89
2022-08-01T14:52:38.022Z,50.69
2022-08-01T14:55:07.398Z,50.40
2022-08-01T14:57:37.455Z,51.37
2022-08-01T15:00:07.726Z,50.82
2022-08-01T15:02:35.926Z,51.21
2022-08-01T15:05:04.623Z,53.59
2022-08-01T15:07:33.504Z,53.21
2022-08-01T15:10:01.735Z,54.19
2022-08-01T15:12:49.364Z,53.79
2022-08-01T15:15:20.458Z,54.28
2022-08-01T15:17:48.604Z,54.10
2022-08-01T15:20:16.802Z,54.27
2022-08-01T15:22:45.099Z,53.90
2022-08-01T15:25:13.426Z,53.81
2022-08-01T15:27:41.706Z,52.48
2022-08-01T15:30:10.594Z,53.07
2022-08-01T15:32:40.502Z,52.89
2022-08-01T15:35:11.304Z,51.83
2022-08-01T15:37:42.831Z,52.13
2022-08-01T15:40:14.024Z,52.23
2022-08-01T15:42:42.291Z,51.95
2022-08-01T15:45:25.682Z,51.92
2022-08-01T15:48:01.052Z,51.08
2022-08-01T15:50:29.169Z,51.52
2022-08-01T15:52:57.340Z,51.53
2022-08-01T15:55:25.511Z,51.74
2022-08-01T15:57:53.707Z,53.02
2022-08-01T16:00:21.834Z,53.49
2022-08-01T16:02:50.018Z,53.92
2022-08-01T16:05:20.617Z,53.82
2022-08-01T16:07:58.093Z,54.35
2022-08-01T16:10:29.808Z,54.20
2022-08-01T16:12:58.012Z,54.25
2022-08-01T16:15:36.021Z,54.75
2022-08-01T16:18:05.992Z,54.04
2022-08-01T16:20:37.426Z,54.53
2022-08-01T16:23:07.349Z,54.07
2022-08-01T16:25:35.613Z,54.17
2022-08-01T16:28:03.757Z,53.82
2022-08-01T16:30:31.999Z,54.14
2022-08-01T16:33:08.231Z,54.06
2022-08-01T16:35:49.493Z,54.34
2022-08-01T16:38:20.905Z,54.34
2022-08-01T16:40:50.200Z,54.48
2022-08-01T16:43:20.263Z,53.86
2022-08-01T16:45:49.138Z,55.04
2022-08-01T16:48:18.548Z,55.58
2022-08-01T16:50:49.554Z,55.77
2022-08-01T16:53:20.746Z,56.18
2022-08-01T16:55:50.910Z,57.63
2022-08-01T16:58:27.366Z,58.09
2022-08-01T17:00:57.697Z,58.91
2022-08-01T17:03:51.186Z,59.56
2022-08-01T17:06:22.500Z,60.18
2022-08-01T17:08:52.204Z,59.97
2022-08-01T17:11:20.367Z,61.47
2022-08-01T17:13:49.012Z,60.78
2022-08-01T17:16:17.256Z,61.58
2022-08-01T17:18:45.480Z,61.80
2022-08-01T17:21:13.641Z,62.51
2022-08-01T17:23:41.844Z,63.79
2022-08-01T17:26:11.702Z,64.64
2022-08-01T17:28:39.862Z,64.36
2022-08-01T17:31:10.552Z,65.15
2022-08-01T17:33:46.085Z,66.75
2022-08-01T17:36:15.301Z,67.43
2022-08-01T17:38:43.519Z,68.67
2022-08-01T17:41:13.055Z,69.09
2022-08-01T17:43:41.249Z,69.13
2022-08-01T17:46:09.524Z,70.17
2022-08-01T17:48:37.773Z,70.70
2022-08-01T17:51:06.633Z,71.84
2022-08-01T17:53:35.060Z,72.77
2022-08-01T17:56:06.319Z,74.32
2022-08-01T17:58:51.275Z,75.49
2022-08-01T18:01:20.795Z,76.40
2022-08-01T18:03:49.556Z,76.49
2022-08-01T18:06:19.847Z,77.87
2022-08-01T18:08:55.441Z,78.11
2022-08-01T18:12:19.147Z,79.72
2022-08-01T18:14:48.642Z,80.36
2022-08-01T18:17:17.758Z,80.61
2022-08-01T18:19:46.776Z,81.99
2022-08-01T18:22:33.219Z,82.41
2022-08-01T18:25:04.126Z,82.68
2022-08-01T18:28:23.518Z,83.65
2022-08-01T18:30:27.254Z,83.59
2022-08-01T18:32:56.170Z,83.90
2022-08-01T18:35:37.185Z,85.35
2022-08-01T18:38:13.980Z,86.68
2022-08-01T18:40:42.743Z,87.43
2022-08-01T18:43:10.899Z,88.88
2022-08-01T18:45:42.934Z,89.22
2022-08-01T18:48:11.682Z,89.18
2022-08-01T18:50:40.686Z,89.10
2022-08-01T18:53:09.179Z,89.65
2022-08-01T18:55:37.396Z,89.81
2022-08-01T18:58:05.610Z,90.48
2022-08-01T19:00:33.758Z,90.79
2022-08-01T19:03:03.369Z,91.21
2022-08-01T19:05:35.931Z,90.52
2022-08-01T19:08:07.577Z,90.68
2022-08-01T19:10:36.631Z,89.86
2022-08-01T19:13:04.885Z,90.53
2022-08-01T19:15:33.133Z,90.56
2022-08-01T19:18:03.358Z,89.59
2022-08-01T19:20:31.808Z,89.86
2022-08-01T19:23:00.026Z,88.98
2022-08-01T19:25:28.555Z,88.54
2022-08-01T19:27:59.553Z,88.78
2022-08-01T19:30:28.774Z,88.70
2022-08-01T19:32:57.764Z,88.29
2022-08-01T19:35:27.361Z,89.11
2022-08-01T19:37:57.710Z,89.22
2022-08-01T19:40:28.267Z,90.25
2022-08-01T19:42:57.957Z,90.64
2022-08-01T19:45:30.695Z,91.34
2022-08-01T19:48:00.181Z,93.05
2022-08-01T19:50:30.781Z,93.43
2022-08-01T19:53:03.223Z,92.82
2022-08-01T19:55:36.271Z,93.83
2022-08-01T19:58:26.470Z,92.83
2022-08-01T20:00:56.072Z,92.43
2022-08-01T20:03:25.310Z,92.58
2022-08-01T20:05:55.262Z,93.08
2022-08-01T20:08:23.485Z,94.11
2022-08-01T20:10:52.909Z,96.54
2022-08-01T20:13:22.077Z,99.08
2022-08-01T20:15:50.532Z,100.00
2022-08-01T20:18:18.828Z,100.00
2022-08-01T20:20:48.414Z,100.00
2022-08-01T20:23:19.632Z,100.00
2022-08-01T20:25:50.670Z,100.00
2022-08-01T20:28:24.172Z,100.00
2022-08-01T20:30:56.061Z,100.00
2022-08-01T20:33:24.290Z,100.00
2022-08-01T20:35:54.182Z,98.52
2022-08-01T20:38:27.442Z,96.30
2022-08-01T20:40:58.874Z,96.39
2022-08-01T20:43:28.107Z,95.34
2022-08-01T20:45:57.623Z,93.87
2022-08-01T20:48:27.876Z,94.88
2022-08-01T20:51:14.245Z,93.01
2022-08-01T20:53:45.835Z,92.90
2022-08-01T20:56:18.464Z,91.83
2022-08-01T20:59:10.491Z,90.51
2022-08-01T21:02:04.542Z,91.67
2022-08-01T21:04:43.825Z,92.08
2022-08-01T21:07:23.517Z,92.02
2022-08-01T21:09:56.614Z,94.81
2022-08-01T21:12:29.222Z,98.27
2022-08-01T21:15:00.076Z,100.00
2022-08-01T21:17:38.993Z,100.00
2022-08-01T21:20:08.802Z,100.00
2022-08-01T21:22:41.619Z,100.00
2022-08-01T21:25:15.681Z,100.00
2022-08-01T21:27:47.745Z,100.00
2022-08-01T21:30:16.448Z,100.00
2022-08-01T21:32:45.036Z,100.00
2022-08-01T21:35:16.847Z,100.00
2022-08-01T21:37:52.153Z,100.00
2022-08-01T21:40:24.269Z,100.00
2022-08-01T21:42:54.187Z,100.00
2022-08-01T21:45:24.939Z,100.00
2022-08-01T21:47:53.509Z,100.00
2022-08-01T21:50:22.372Z,100.00
2022-08-01T21:52:55.649Z,100.00
2022-08-01T21:55:35.638Z,100.00
2022-08-01T21:58:19.283Z,100.00
2022-08-01T22:00:54.273Z,100.00
2022-08-01T22:03:25.713Z,100.00
2022-08-01T22:05:56.361Z,100.00
2022-08-01T22:08:31.235Z,100.00
2022-08-01T22:11:04.654Z,100.00
2022-08-01T22:13:34.066Z,100.00
2022-08-01T22:16:04.848Z,100.00
2022-08-01T22:18:36.982Z,100.00
2022-08-01T22:21:05.987Z,100.00
2022-08-01T22:23:37.293Z,100.00
2022-08-01T22:26:10.853Z,100.00
2022-08-01T22:28:41.327Z,100.00
2022-08-01T22:31:09.631Z,100.00
2022-08-01T22:33:39.787Z,100.00
2022-08-01T22:36:08.533Z,100.00
2022-08-01T22:38:36.691Z,100.00
2022-08-01T22:41:10.469Z,100.00
2022-08-01T22:43:43.232Z,100.00
2022-08-01T22:46:26.374Z,100.00
2022-08-01T22:49:01.042Z,100.00
2022-08-01T22:51:40.512Z,100.00
2022-08-01T22:54:11.295Z,100.00
2022-08-01T22:56:45.438Z,100.00
2022-08-01T22:59:18.271Z,100.00
2022-08-01T23:01:52.107Z,100.00
2022-08-01T23:04:24.270Z,100.00
2022-08-01T23:07:05.267Z,100.00
2022-08-01T23:09:53.360Z,100.00
2022-08-01T23:12:26.451Z,100.00
2022-08-01T23:14:56.443Z,100.00
2022-08-01T23:17:28.525Z,100.00
2022-08-01T23:19:59.261Z,100.00
2022-08-01T23:22:30.259Z,100.00
2022-08-01T23:25:04.305Z,100.00
2022-08-01T23:27:51.539Z,100.00
2022-08-01T23:30:31.977Z,100.00
2022-08-01T23:33:01.298Z,100.00
2022-08-01T23:35:30.588Z,100.00
2022-08-01T23:38:02.882Z,100.00
2022-08-01T23:40:32.184Z,100.00
2022-08-01T23:43:02.826Z,100.00
2022-08-01T23:46:02.004Z,100.00
2022-08-01T23:48:19.460Z,100.00
2022-08-01T23:50:47.750Z,100.00
2022-08-01T23:53:15.879Z,100.00
2022-08-01T23:55:44.647Z,100.00
2022-08-01T23:58:14.171Z,100.00
